TimeCST,TemperatureF,Dew PointF,Humidity,Sea Level PressureIn,VisibilityMPH,Wind Direction,Wind SpeedMPH,Gust SpeedMPH,PrecipitationIn,Events,Conditions,WindDirDegrees,DateUTC
12:52 AM,48.0,48.0,100,29.97,0.2,SE,9.2,-,N/A,Fog,Fog,130,2012-12-03 06:52:00
1:52 AM,48.9,48.0,97,29.96,0.2,ESE,8.1,-,N/A,Fog,Fog,120,2012-12-03 07:52:00
2:52 AM,50.0,50.0,100,29.93,0.2,SSE,10.4,-,N/A,Fog,Fog,150,2012-12-03 08:52:00
3:52 AM,50.0,50.0,100,29.91,0.2,SSE,10.4,-,N/A,Fog,Fog,150,2012-12-03 09:52:00
4:52 AM,53.1,53.1,100,29.88,0.2,SSE,12.7,-,0.01,Fog,Fog,160,2012-12-03 10:52:00
5:07 AM,53.6,53.6,100,29.87,0.5,South,12.7,-,N/A,Fog,Fog,170,2012-12-03 11:07:00
5:21 AM,53.6,53.6,100,29.86,0.8,SSE,12.7,-,N/A,,Mist,160,2012-12-03 11:21:00
5:41 AM,55.4,55.4,100,29.86,2.5,South,11.5,-,N/A,,Mostly Cloudy,170,2012-12-03 11:41:00
5:48 AM,55.4,55.4,100,29.86,3.0,SSE,11.5,-,N/A,,Scattered Clouds,160,2012-12-03 11:48:00
5:52 AM,55.0,55.0,100,29.86,3.0,South,13.8,-,N/A,,Mostly Cloudy,170,2012-12-03 11:52:00
6:52 AM,57.0,55.0,93,29.86,5.0,SSE,12.7,-,N/A,,Clear,160,2012-12-03 12:52:00
7:52 AM,59.0,55.9,90,29.84,5.0,South,16.1,-,N/A,,Scattered Clouds,180,2012-12-03 13:52:00
8:52 AM,60.1,57.0,90,29.83,6.0,South,17.3,27.6,N/A,,Partly Cloudy,180,2012-12-03 14:52:00
9:52 AM,63.0,57.9,84,29.81,7.0,South,17.3,31.1,N/A,,Scattered Clouds,190,2012-12-03 15:52:00
10:37 AM,64.4,59.0,83,29.79,8.0,South,23.0,32.2,N/A,,Mostly Cloudy,190,2012-12-03 16:37:00
10:52 AM,64.9,57.9,78,29.78,9.0,SSW,24.2,34.5,N/A,,Mostly Cloudy,200,2012-12-03 16:52:00
11:23 AM,66.2,59.0,78,29.76,10.0,SSW,21.9,32.2,N/A,,Scattered Clouds,200,2012-12-03 17:23:00
11:52 AM,66.9,57.9,73,29.74,10.0,South,23.0,34.5,N/A,,Mostly Cloudy,190,2012-12-03 17:52:00
12:52 PM,66.9,57.9,73,29.75,10.0,SSW,18.4,25.3,N/A,,Overcast,210,2012-12-03 18:52:00
1:52 PM,66.9,57.9,73,29.74,10.0,SSW,15.0,-,N/A,,Overcast,200,2012-12-03 19:52:00
2:52 PM,68.0,57.9,70,29.73,10.0,SSW,12.7,-,N/A,,Overcast,200,2012-12-03 20:52:00
3:52 PM,69.1,57.9,68,29.74,10.0,SSW,13.8,-,N/A,,Mostly Cloudy,210,2012-12-03 21:52:00
4:52 PM,68.0,57.0,68,29.75,10.0,SSW,10.4,-,N/A,,Mostly Cloudy,210,2012-12-03 22:52:00
5:52 PM,66.9,55.9,68,29.76,10.0,SW,16.1,23.0,0.00,,Mostly Cloudy,220,2012-12-03 23:52:00
6:52 PM,63.0,55.9,78,29.80,10.0,WNW,25.3,38.0,0.03,Rain,Light Rain,290,2012-12-04 00:52:00
7:52 PM,55.9,48.9,77,29.86,9.0,WNW,12.7,-,0.00,,Mostly Cloudy,300,2012-12-04 01:52:00
8:52 PM,52.0,44.1,74,29.89,10.0,NW,15.0,-,N/A,,Clear,310,2012-12-04 02:52:00
9:52 PM,48.0,42.1,80,29.92,10.0,WNW,6.9,-,N/A,,Clear,300,2012-12-04 03:52:00
10:52 PM,48.9,41.0,74,29.95,10.0,NW,9.2,-,N/A,,Clear,320,2012-12-04 04:52:00
11:52 PM,48.0,39.0,71,29.96,10.0,NNW,10.4,-,N/A,,Clear,330,2012-12-04 05:52:00